createdAt,value
2023-03-18T00:01:51.826Z,6.70
2023-03-18T00:04:40.712Z,8.10
2023-03-18T00:07:28.142Z,6.30
2023-03-18T00:10:16.697Z,5.17
2023-03-18T00:13:04.661Z,5.63
2023-03-18T00:15:52.785Z,7.17
2023-03-18T00:18:40.364Z,6.70
2023-03-18T00:21:28.081Z,7.07
2023-03-18T00:24:16.695Z,5.80
2023-03-18T00:27:04.310Z,4.63
2023-03-18T00:29:51.822Z,7.37
2023-03-18T00:32:39.589Z,5.97
2023-03-18T00:35:28.061Z,5.73
2023-03-18T00:38:20.811Z,6.50
2023-03-18T00:41:11.657Z,6.03
2023-03-18T00:43:59.587Z,4.97
2023-03-18T00:46:47.088Z,6.37
2023-03-18T00:49:34.989Z,6.47
2023-03-18T00:52:23.184Z,6.87
2023-03-18T00:55:11.024Z,7.83
2023-03-18T00:57:58.442Z,7.20
2023-03-18T01:00:45.937Z,6.87
2023-03-18T01:03:33.906Z,5.00
2023-03-18T01:06:22.895Z,5.97
2023-03-18T01:09:12.053Z,9.33
2023-03-18T01:11:59.578Z,8.53
2023-03-18T01:14:48.118Z,6.60
2023-03-18T01:17:35.569Z,5.00
2023-03-18T01:20:23.719Z,6.57
2023-03-18T01:23:12.636Z,6.37
2023-03-18T01:26:00.122Z,6.77
2023-03-18T01:28:48.019Z,5.00
2023-03-18T01:31:35.659Z,6.27
2023-03-18T01:34:23.801Z,6.43
2023-03-18T01:37:11.690Z,7.07
2023-03-18T01:39:59.116Z,6.97
2023-03-18T01:42:49.560Z,6.37
2023-03-18T01:45:37.277Z,5.23
2023-03-18T01:48:26.355Z,7.00
2023-03-18T01:51:14.288Z,7.17
2023-03-18T01:54:04.216Z,6.67
2023-03-18T01:56:51.750Z,7.20
2023-03-18T01:59:41.328Z,5.50
2023-03-18T02:02:29.187Z,7.17
2023-03-18T02:05:18.977Z,7.20
2023-03-18T02:08:06.725Z,6.87
2023-03-18T02:10:54.120Z,6.40
2023-03-18T02:13:42.823Z,5.23
2023-03-18T02:16:40.663Z,7.27
2023-03-18T02:19:28.392Z,7.30
2023-03-18T02:22:22.542Z,5.67
2023-03-18T02:25:27.786Z,7.33
2023-03-18T02:28:20.088Z,6.57
2023-03-18T02:31:11.716Z,5.40
2023-03-18T02:33:59.856Z,8.20
2023-03-18T02:36:47.575Z,5.90
2023-03-18T02:39:35.648Z,7.50
2023-03-18T02:42:32.610Z,7.97
2023-03-18T02:45:33.289Z,7.00
2023-03-18T02:48:21.384Z,5.97
2023-03-18T02:51:08.930Z,6.37
2023-03-18T02:53:59.938Z,7.33
2023-03-18T02:56:47.692Z,5.73
2023-03-18T02:59:35.204Z,5.20
2023-03-18T03:02:22.649Z,5.67
2023-03-18T03:05:10.583Z,7.00
2023-03-18T03:07:58.038Z,6.60
2023-03-18T03:10:46.265Z,8.37
2023-03-18T03:13:33.755Z,5.27
2023-03-18T03:16:21.217Z,8.63
2023-03-18T03:19:09.002Z,5.43
2023-03-18T03:21:57.136Z,7.30
2023-03-18T03:24:45.058Z,5.90
2023-03-18T03:27:32.833Z,5.97
2023-03-18T03:30:20.524Z,6.37
2023-03-18T03:33:08.423Z,5.00
2023-03-18T03:35:57.993Z,6.33
2023-03-18T03:38:45.573Z,7.50
2023-03-18T03:41:32.953Z,4.93
2023-03-18T03:44:20.373Z,6.43
2023-03-18T03:47:08.390Z,9.20
2023-03-18T03:49:56.243Z,5.40
2023-03-18T03:52:43.625Z,5.17
2023-03-18T03:55:31.108Z,9.07
2023-03-18T03:58:18.612Z,9.50
2023-03-18T04:01:06.509Z,7.23
2023-03-18T04:03:54.004Z,10.87
2023-03-18T04:06:41.536Z,11.77
2023-03-18T04:09:29.170Z,12.77
2023-03-18T04:12:19.500Z,17.37
2023-03-18T04:15:07.526Z,13.90
2023-03-18T04:17:55.451Z,10.47
2023-03-18T04:20:42.846Z,8.67
2023-03-18T04:23:30.237Z,8.90
2023-03-18T04:26:17.652Z,8.77
2023-03-18T04:29:05.132Z,6.33
2023-03-18T04:31:52.686Z,8.43
2023-03-18T04:34:40.309Z,6.53
2023-03-18T04:37:27.738Z,7.63
2023-03-18T04:40:15.466Z,6.33
2023-03-18T04:43:02.898Z,6.97
2023-03-18T04:45:50.349Z,7.60
2023-03-18T04:48:37.749Z,10.27
2023-03-18T04:51:27.306Z,8.30
2023-03-18T04:54:14.801Z,12.10
2023-03-18T04:57:02.292Z,6.63
2023-03-18T04:59:49.679Z,7.93
2023-03-18T05:02:37.024Z,8.37
2023-03-18T05:05:25.096Z,6.13
2023-03-18T05:08:12.838Z,8.57
2023-03-18T05:11:00.232Z,8.03
2023-03-18T05:13:47.928Z,7.77
2023-03-18T05:16:36.050Z,7.03
2023-03-18T05:19:25.207Z,7.00
2023-03-18T05:22:13.355Z,9.67
2023-03-18T05:25:01.597Z,6.37
2023-03-18T05:27:49.561Z,7.20
2023-03-18T05:30:39.502Z,8.33
2023-03-18T05:33:27.007Z,8.53
2023-03-18T05:36:14.860Z,9.70
2023-03-18T05:39:02.272Z,8.77
2023-03-18T05:41:49.773Z,8.77
2023-03-18T05:44:37.238Z,7.83
2023-03-18T05:47:24.642Z,8.20
2023-03-18T05:50:13.344Z,8.43
2023-03-18T05:53:01.022Z,9.70
2023-03-18T05:55:48.745Z,10.07
2023-03-18T05:58:36.184Z,40.50
2023-03-18T06:01:25.988Z,46.60
2023-03-18T06:04:13.653Z,26.67
2023-03-18T06:07:01.736Z,13.57
2023-03-18T06:09:49.924Z,11.23
2023-03-18T06:12:37.335Z,14.20
2023-03-18T06:15:25.661Z,10.23
2023-03-18T06:18:13.524Z,12.67
2023-03-18T06:21:01.131Z,11.53
2023-03-18T06:23:48.607Z,12.07
2023-03-18T06:26:35.970Z,12.73
2023-03-18T06:29:23.832Z,12.87
2023-03-18T06:32:11.297Z,15.43
2023-03-18T06:34:58.694Z,12.40
2023-03-18T06:37:46.100Z,13.17
2023-03-18T06:40:33.502Z,14.83
2023-03-18T06:43:20.912Z,12.70
2023-03-18T06:46:08.549Z,14.63
2023-03-18T06:48:55.926Z,15.67
2023-03-18T06:51:43.780Z,15.90
2023-03-18T06:54:31.174Z,18.50
2023-03-18T06:57:18.708Z,16.43
2023-03-18T07:00:06.629Z,17.67
2023-03-18T07:02:54.051Z,16.40
2023-03-18T07:05:42.120Z,83.47
2023-03-18T07:08:29.481Z,35.87
2023-03-18T07:11:16.854Z,32.10
2023-03-18T07:14:05.759Z,35.27
2023-03-18T07:16:53.160Z,23.27
2023-03-18T07:19:41.754Z,17.33
2023-03-18T07:22:29.206Z,16.17
2023-03-18T07:25:16.588Z,18.33
2023-03-18T07:28:05.644Z,18.83
2023-03-18T07:30:54.252Z,20.43
2023-03-18T07:33:41.812Z,25.93
2023-03-18T07:36:29.257Z,23.33
2023-03-18T07:39:17.069Z,26.30
2023-03-18T07:42:04.529Z,17.97
2023-03-18T07:44:52.226Z,26.07
2023-03-18T07:47:39.714Z,21.07
2023-03-18T07:50:27.879Z,20.67
2023-03-18T07:53:16.760Z,23.63
2023-03-18T07:56:04.587Z,20.97
2023-03-18T07:58:52.770Z,20.90
2023-03-18T08:01:40.196Z,15.17
2023-03-18T08:04:27.806Z,15.63
2023-03-18T08:07:15.256Z,15.13
2023-03-18T08:10:02.704Z,18.40
2023-03-18T08:12:53.507Z,15.83
2023-03-18T08:15:41.759Z,15.97
2023-03-18T08:18:29.250Z,15.60
2023-03-18T08:21:16.638Z,14.77
2023-03-18T08:24:04.178Z,13.43
2023-03-18T08:26:51.598Z,18.63
2023-03-18T08:29:39.063Z,14.67
2023-03-18T08:32:27.897Z,14.40
2023-03-18T08:35:15.410Z,14.53
2023-03-18T08:38:04.160Z,13.50
2023-03-18T08:40:51.951Z,11.77
2023-03-18T08:43:39.744Z,15.27
2023-03-18T08:46:27.159Z,22.60
2023-03-18T08:49:14.596Z,15.43
2023-03-18T08:52:02.042Z,14.03
2023-03-18T08:54:49.594Z,15.17
2023-03-18T08:57:37.816Z,16.33
2023-03-18T09:00:25.665Z,17.93
2023-03-18T09:03:13.704Z,17.17
2023-03-18T09:06:01.783Z,17.00
2023-03-18T09:08:49.220Z,15.90
2023-03-18T09:11:37.306Z,15.83
2023-03-18T09:14:24.684Z,18.70
2023-03-18T09:17:12.567Z,17.33
2023-03-18T09:20:00.143Z,16.40
2023-03-18T09:22:47.643Z,17.30
2023-03-18T09:25:35.350Z,19.60
2023-03-18T09:28:22.822Z,14.70
2023-03-18T09:31:10.353Z,16.30
2023-03-18T09:33:58.599Z,16.63
2023-03-18T09:36:50.995Z,16.83
2023-03-18T09:39:38.411Z,15.87
2023-03-18T09:42:37.829Z,15.93
2023-03-18T09:45:28.785Z,17.53
2023-03-18T09:48:35.656Z,19.00
2023-03-18T09:51:34.925Z,14.53
2023-03-18T09:54:41.349Z,15.07
2023-03-18T09:57:37.497Z,14.87
2023-03-18T10:00:27.810Z,20.80
2023-03-18T10:03:24.515Z,18.07
2023-03-18T10:06:16.948Z,18.57
2023-03-18T10:09:10.590Z,17.33
2023-03-18T10:12:08.075Z,14.50
2023-03-18T10:15:02.332Z,16.43
2023-03-18T10:17:57.916Z,17.27
2023-03-18T10:20:50.321Z,15.37
2023-03-18T10:23:44.804Z,16.07
2023-03-18T10:26:32.289Z,15.83
2023-03-18T10:29:38.529Z,15.60
2023-03-18T10:32:49.061Z,17.03
2023-03-18T10:35:49.886Z,19.00
2023-03-18T10:38:43.326Z,21.13
2023-03-18T10:41:32.555Z,14.63
2023-03-18T10:44:28.828Z,12.90
2023-03-18T10:47:23.929Z,13.27
2023-03-18T10:50:17.734Z,11.73
2023-03-18T10:53:18.504Z,11.20
2023-03-18T10:56:08.172Z,13.03
2023-03-18T10:58:57.347Z,14.07
2023-03-18T11:01:47.980Z,12.57
2023-03-18T11:04:54.439Z,14.13
2023-03-18T11:07:56.167Z,13.57
2023-03-18T11:10:48.148Z,12.47
2023-03-18T11:13:35.724Z,10.53
2023-03-18T11:16:33.021Z,9.60
2023-03-18T11:19:20.872Z,10.63
2023-03-18T11:22:12.073Z,8.40
2023-03-18T11:25:02.548Z,9.20
2023-03-18T11:27:52.194Z,8.27
2023-03-18T11:30:48.313Z,8.40
2023-03-18T11:33:37.543Z,8.73
2023-03-18T11:36:27.835Z,8.20
2023-03-18T11:39:16.505Z,8.03
2023-03-18T11:42:06.157Z,10.00
2023-03-18T11:45:01.965Z,8.53
2023-03-18T11:47:49.377Z,11.67
2023-03-18T11:50:43.320Z,10.73
2023-03-18T11:53:49.708Z,8.10
2023-03-18T11:56:44.336Z,9.30
2023-03-18T11:59:31.746Z,6.90
2023-03-18T12:02:24.823Z,11.97
2023-03-18T12:05:12.304Z,7.77
2023-03-18T12:08:18.153Z,8.00
2023-03-18T12:11:24.718Z,8.93
2023-03-18T12:14:27.371Z,6.47
2023-03-18T12:17:33.971Z,7.87
2023-03-18T12:20:35.373Z,7.37
2023-03-18T12:23:42.222Z,7.80
2023-03-18T12:26:50.857Z,8.17
2023-03-18T12:29:43.661Z,9.17
2023-03-18T12:32:50.740Z,9.83
2023-03-18T12:35:45.780Z,5.33
2023-03-18T12:38:52.134Z,6.23
2023-03-18T12:42:02.564Z,6.43
2023-03-18T12:45:00.863Z,6.50
2023-03-18T12:47:50.525Z,5.77
2023-03-18T12:50:40.686Z,6.37
2023-03-18T12:53:33.803Z,6.80
2023-03-18T12:56:23.526Z,6.70
2023-03-18T12:59:22.969Z,10.23
2023-03-18T13:02:29.529Z,7.55
2023-03-18T13:05:43.039Z,6.95
2023-03-18T13:08:44.947Z,8.43
2023-03-18T13:11:36.077Z,11.37
2023-03-18T13:14:37.609Z,9.20
2023-03-18T13:17:37.089Z,8.63
2023-03-18T13:20:27.725Z,10.73
2023-03-18T13:23:21.193Z,6.80
2023-03-18T13:26:22.150Z,8.33
2023-03-18T13:29:18.880Z,7.43
2023-03-18T13:32:15.344Z,8.03
2023-03-18T13:35:22.446Z,8.90
2023-03-18T13:38:17.251Z,8.43
2023-03-18T13:41:14.835Z,8.57
2023-03-18T13:44:11.547Z,7.83
2023-03-18T13:47:01.392Z,6.63
2023-03-18T13:49:49.689Z,7.37
2023-03-18T13:52:40.109Z,7.93
2023-03-18T13:55:27.629Z,11.10
2023-03-18T13:58:20.390Z,6.83
2023-03-18T14:01:17.472Z,5.40
2023-03-18T14:04:22.545Z,6.10
2023-03-18T14:07:13.574Z,7.87
2023-03-18T14:10:17.178Z,6.47
2023-03-18T14:13:26.241Z,6.27
2023-03-18T14:16:14.859Z,8.70
2023-03-18T14:19:03.216Z,9.33
2023-03-18T14:21:53.494Z,6.70
2023-03-18T14:24:40.984Z,9.37
2023-03-18T14:27:28.352Z,8.13
2023-03-18T14:30:40.527Z,7.90
2023-03-18T14:33:33.379Z,8.50
2023-03-18T14:36:29.103Z,8.90
2023-03-18T14:39:30.749Z,8.47
2023-03-18T14:42:33.072Z,8.43
2023-03-18T14:45:24.402Z,8.00
2023-03-18T14:48:24.310Z,8.43
2023-03-18T14:51:14.426Z,7.20
2023-03-18T14:54:01.973Z,10.13
2023-03-18T14:56:53.767Z,7.80
2023-03-18T14:59:41.429Z,7.67
2023-03-18T15:02:37.357Z,7.23
2023-03-18T15:05:25.696Z,6.53
2023-03-18T15:08:19.476Z,9.80
2023-03-18T15:11:07.482Z,6.00
2023-03-18T15:13:56.595Z,8.50
2023-03-18T15:16:51.599Z,7.40
2023-03-18T15:19:38.968Z,9.30
2023-03-18T15:22:28.468Z,10.80
2023-03-18T15:25:18.429Z,7.70
2023-03-18T15:28:06.745Z,7.43
2023-03-18T15:30:55.897Z,9.73
2023-03-18T15:33:46.471Z,7.90
2023-03-18T15:36:41.187Z,9.67
2023-03-18T15:39:47.307Z,8.77
2023-03-18T15:42:35.118Z,10.07
2023-03-18T15:45:25.771Z,9.70
2023-03-18T15:48:21.630Z,9.93
2023-03-18T15:51:23.235Z,11.87
2023-03-18T15:54:28.037Z,9.93
2023-03-18T15:57:24.243Z,13.87
2023-03-18T16:00:12.001Z,9.63
2023-03-18T16:03:00.264Z,8.17
2023-03-18T16:05:47.635Z,10.80
2023-03-18T16:08:35.123Z,9.50
2023-03-18T16:11:24.224Z,10.07
2023-03-18T16:14:15.942Z,9.53
2023-03-18T16:17:03.771Z,11.80
2023-03-18T16:19:55.109Z,11.07
2023-03-18T16:22:42.484Z,13.50
2023-03-18T16:25:29.901Z,13.80
2023-03-18T16:28:18.948Z,13.00
2023-03-18T16:31:06.977Z,11.93
2023-03-18T16:33:56.125Z,12.93
2023-03-18T16:36:44.295Z,14.30
2023-03-18T16:39:35.113Z,12.90
2023-03-18T16:42:25.700Z,12.93
2023-03-18T16:45:18.223Z,11.50
2023-03-18T16:48:07.382Z,9.83
2023-03-18T16:50:57.155Z,9.27
2023-03-18T16:53:45.335Z,13.30
2023-03-18T16:56:32.749Z,9.13
2023-03-18T16:59:20.567Z,8.33
2023-03-18T17:02:17.697Z,12.93
2023-03-18T17:05:05.487Z,10.07
2023-03-18T17:07:53.008Z,10.30
2023-03-18T17:10:41.885Z,16.07
2023-03-18T17:13:30.381Z,9.10
2023-03-18T17:16:20.066Z,10.23
2023-03-18T17:19:10.277Z,13.77
2023-03-18T17:21:57.693Z,12.53
2023-03-18T17:24:45.059Z,17.07
2023-03-18T17:27:40.515Z,13.47
2023-03-18T17:30:34.277Z,13.50
2023-03-18T17:33:24.508Z,12.10
2023-03-18T17:36:12.438Z,15.80
2023-03-18T17:39:00.147Z,11.63
2023-03-18T17:41:47.600Z,13.23
2023-03-18T17:44:35.028Z,14.50
2023-03-18T17:47:22.727Z,17.10
2023-03-18T17:50:14.710Z,13.47
2023-03-18T17:53:02.118Z,17.63
2023-03-18T17:55:49.722Z,15.43
2023-03-18T17:58:37.202Z,10.37
2023-03-18T18:01:29.300Z,8.17
2023-03-18T18:04:18.517Z,11.13
2023-03-18T18:07:10.205Z,13.37
2023-03-18T18:09:59.171Z,10.70
2023-03-18T18:12:48.590Z,12.37
2023-03-18T18:15:37.274Z,15.47
2023-03-18T18:18:29.341Z,11.13
2023-03-18T18:21:18.040Z,16.13
2023-03-18T18:24:13.013Z,19.17
2023-03-18T18:27:00.500Z,10.73
2023-03-18T18:29:48.081Z,9.23
2023-03-18T18:32:36.056Z,14.17
2023-03-18T18:35:24.964Z,12.87
2023-03-18T18:38:13.233Z,13.40
2023-03-18T18:41:01.467Z,16.77
2023-03-18T18:43:48.878Z,15.63
2023-03-18T18:46:36.450Z,13.47
2023-03-18T18:49:24.860Z,12.03
2023-03-18T18:52:12.431Z,10.63
2023-03-18T18:55:00.281Z,14.47
2023-03-18T18:57:48.164Z,10.93
2023-03-18T19:00:35.694Z,16.03
2023-03-18T19:03:24.253Z,16.13
2023-03-18T19:06:20.217Z,10.37
2023-03-18T19:09:13.840Z,14.00
2023-03-18T19:12:01.220Z,12.73
2023-03-18T19:14:48.707Z,14.77
2023-03-18T19:17:36.111Z,12.03
2023-03-18T19:20:28.161Z,10.97
2023-03-18T19:23:35.800Z,13.43
2023-03-18T19:26:23.196Z,12.73
2023-03-18T19:29:11.019Z,12.80
2023-03-18T19:31:58.655Z,15.77
2023-03-18T19:34:46.769Z,17.50
2023-03-18T19:37:35.711Z,11.97
2023-03-18T19:40:29.450Z,11.40
2023-03-18T19:43:18.687Z,11.77
2023-03-18T19:46:06.231Z,18.20
2023-03-18T19:48:53.637Z,15.87
2023-03-18T19:51:41.479Z,16.00
2023-03-18T19:54:33.591Z,17.70
2023-03-18T19:57:23.293Z,15.43
2023-03-18T20:00:21.951Z,15.17
2023-03-18T20:03:13.772Z,18.57
2023-03-18T20:06:01.850Z,17.67
2023-03-18T20:08:49.272Z,23.07
2023-03-18T20:11:37.295Z,19.73
2023-03-18T20:14:30.488Z,20.73
2023-03-18T20:17:31.712Z,15.33
2023-03-18T20:20:20.295Z,19.97
2023-03-18T20:23:12.164Z,17.23
2023-03-18T20:25:59.711Z,19.13
2023-03-18T20:28:48.974Z,14.53
2023-03-18T20:31:36.842Z,16.63
2023-03-18T20:34:24.305Z,18.10
2023-03-18T20:37:16.926Z,15.67
2023-03-18T20:40:05.356Z,19.60
2023-03-18T20:42:53.015Z,17.70
2023-03-18T20:45:40.745Z,18.53
2023-03-18T20:48:28.256Z,18.70
2023-03-18T20:51:20.629Z,19.00
2023-03-18T20:54:18.982Z,24.10
2023-03-18T20:57:06.827Z,21.80
2023-03-18T20:59:54.213Z,21.87
2023-03-18T21:02:42.495Z,19.47
2023-03-18T21:05:29.935Z,20.57
2023-03-18T21:08:19.479Z,16.27
2023-03-18T21:11:07.659Z,16.17
2023-03-18T21:13:55.161Z,17.40
2023-03-18T21:16:42.716Z,19.97
2023-03-18T21:19:30.140Z,18.53
2023-03-18T21:22:21.434Z,15.83
2023-03-18T21:25:15.073Z,17.17
2023-03-18T21:28:03.436Z,21.13
2023-03-18T21:30:52.112Z,15.83
2023-03-18T21:33:39.605Z,16.20
2023-03-18T21:36:27.048Z,15.87
2023-03-18T21:39:14.519Z,20.67
2023-03-18T21:42:01.937Z,17.33
2023-03-18T21:44:49.318Z,20.13
2023-03-18T21:47:36.743Z,17.67
2023-03-18T21:50:26.063Z,14.77
2023-03-18T21:53:15.259Z,15.80
2023-03-18T21:56:04.980Z,16.03
2023-03-18T21:58:52.370Z,15.50
2023-03-18T22:01:40.017Z,13.93
2023-03-18T22:04:27.537Z,16.27
2023-03-18T22:07:15.358Z,15.33
2023-03-18T22:10:03.013Z,16.57
2023-03-18T22:12:50.438Z,15.83
2023-03-18T22:15:39.353Z,16.97
2023-03-18T22:18:26.853Z,16.63
2023-03-18T22:21:14.197Z,14.37
2023-03-18T22:24:01.530Z,15.83
2023-03-18T22:26:48.910Z,17.20
2023-03-18T22:29:36.245Z,17.40
2023-03-18T22:32:26.258Z,15.40
2023-03-18T22:35:13.675Z,15.73
2023-03-18T22:38:01.116Z,15.80
2023-03-18T22:40:50.465Z,16.83
2023-03-18T22:43:38.082Z,17.50
2023-03-18T22:46:25.604Z,16.83
2023-03-18T22:49:12.999Z,18.33
2023-03-18T22:52:00.371Z,18.63
2023-03-18T22:54:48.307Z,19.43
2023-03-18T22:57:35.701Z,22.50
2023-03-18T23:00:25.829Z,19.07
2023-03-18T23:03:15.093Z,23.70
2023-03-18T23:06:03.472Z,22.53
2023-03-18T23:08:50.894Z,20.27
2023-03-18T23:11:38.535Z,21.47
2023-03-18T23:14:25.855Z,23.77
2023-03-18T23:17:17.772Z,22.63
2023-03-18T23:20:05.664Z,24.40
2023-03-18T23:22:52.994Z,23.73
2023-03-18T23:25:41.405Z,17.80
2023-03-18T23:28:28.772Z,20.07
2023-03-18T23:31:16.924Z,21.53
2023-03-18T23:34:04.314Z,21.67
2023-03-18T23:36:51.897Z,19.77
2023-03-18T23:39:42.986Z,18.77
2023-03-18T23:42:30.432Z,19.10
2023-03-18T23:45:17.869Z,20.50
2023-03-18T23:48:05.631Z,20.80
2023-03-18T23:50:53.656Z,22.07
2023-03-18T23:53:41.322Z,20.87
2023-03-18T23:56:28.773Z,22.27
2023-03-18T23:59:16.174Z,20.77
